sensor_id;sensor_type;location;lat;lon;timestamp;pressure;altitude;pressure_sealevel;temperature
74750;BMP280;63269;53.330;-6.288;2022-11-30T00:01:12;101670.66;;;19.30
74750;BMP280;63269;53.330;-6.288;2022-11-30T00:03:37;101674.47;;;19.29
74750;BMP280;63269;53.330;-6.288;2022-11-30T00:06:07;101674.47;;;19.29
74750;BMP280;63269;53.330;-6.288;2022-11-30T00:08:33;101665.38;;;19.27
74750;BMP280;63269;53.330;-6.288;2022-11-30T00:10:59;101665.75;;;19.25
74750;BMP280;63269;53.330;-6.288;2022-11-30T00:13:24;101663.09;;;19.25
74750;BMP280;63269;53.330;-6.288;2022-11-30T00:15:50;101674.16;;;19.24
74750;BMP280;63269;53.330;-6.288;2022-11-30T00:18:15;101675.28;;;19.23
74750;BMP280;63269;53.330;-6.288;2022-11-30T00:20:42;101677.22;;;19.22
74750;BMP280;63269;53.330;-6.288;2022-11-30T00:23:08;101671.50;;;19.20
74750;BMP280;63269;53.330;-6.288;2022-11-30T00:25:34;101674.16;;;19.20
74750;BMP280;63269;53.330;-6.288;2022-11-30T00:28:00;101670.03;;;19.19
74750;BMP280;63269;53.330;-6.288;2022-11-30T00:30:26;101672.69;;;19.19
74750;BMP280;63269;53.330;-6.288;2022-11-30T00:32:55;101667.78;;;19.17
74750;BMP280;63269;53.330;-6.288;2022-11-30T00:35:21;101662.06;;;19.15
74750;BMP280;63269;53.330;-6.288;2022-11-30T00:37:47;101667.38;;;19.15
74750;BMP280;63269;53.330;-6.288;2022-11-30T00:40:12;101671.97;;;19.15
74750;BMP280;63269;53.330;-6.288;2022-11-30T00:42:38;101668.94;;;19.13
74750;BMP280;63269;53.330;-6.288;2022-11-30T00:45:04;101665.53;;;19.12
74750;BMP280;63269;53.330;-6.288;2022-11-30T00:47:29;101663.63;;;19.13
74750;BMP280;63269;53.330;-6.288;2022-11-30T00:49:55;101667.38;;;19.15
74750;BMP280;63269;53.330;-6.288;2022-11-30T00:52:20;101658.63;;;19.19
74750;BMP280;63269;53.330;-6.288;2022-11-30T00:54:46;101664.28;;;19.21
74750;BMP280;63269;53.330;-6.288;2022-11-30T00:57:11;101668.84;;;19.24
74750;BMP280;63269;53.330;-6.288;2022-11-30T00:59:36;101674.88;;;19.28
74750;BMP280;63269;53.330;-6.288;2022-11-30T01:02:02;101666.47;;;19.29
74750;BMP280;63269;53.330;-6.288;2022-11-30T01:04:27;101669.09;;;19.33
74750;BMP280;63269;53.330;-6.288;2022-11-30T01:06:53;101674.78;;;19.35
74750;BMP280;63269;53.330;-6.288;2022-11-30T01:09:18;101683.13;;;19.37
74750;BMP280;63269;53.330;-6.288;2022-11-30T01:11:44;101688.78;;;19.39
74750;BMP280;63269;53.330;-6.288;2022-11-30T01:14:09;101688.72;;;19.43
74750;BMP280;63269;53.330;-6.288;2022-11-30T01:16:34;101682.28;;;19.44
74750;BMP280;63269;53.330;-6.288;2022-11-30T01:19:00;101692.53;;;19.45
74750;BMP280;63269;53.330;-6.288;2022-11-30T01:21:27;101696.28;;;19.48
74750;BMP280;63269;53.330;-6.288;2022-11-30T01:23:53;101691.72;;;19.48
74750;BMP280;63269;53.330;-6.288;2022-11-30T01:26:18;101697.00;;;19.52
74750;BMP280;63269;53.330;-6.288;2022-11-30T01:28:49;101685.22;;;19.53
74750;BMP280;63269;53.330;-6.288;2022-11-30T01:31:15;101695.47;;;19.54
74750;BMP280;63269;53.330;-6.288;2022-11-30T01:33:41;101688.22;;;19.55
74750;BMP280;63269;53.330;-6.288;2022-11-30T01:36:14;101686.66;;;19.57
74750;BMP280;63269;53.330;-6.288;2022-11-30T01:38:44;101685.53;;;19.59
74750;BMP280;63269;53.330;-6.288;2022-11-30T01:41:13;101690.47;;;19.60
74750;BMP280;63269;53.330;-6.288;2022-11-30T01:43:39;101684.38;;;19.60
74750;BMP280;63269;53.330;-6.288;2022-11-30T01:46:27;101684.31;;;19.63
74750;BMP280;63269;53.330;-6.288;2022-11-30T01:48:58;101685.06;;;19.64
74750;BMP280;63269;53.330;-6.288;2022-11-30T01:51:27;101680.53;;;19.64
74750;BMP280;63269;53.330;-6.288;2022-11-30T01:53:55;101684.69;;;19.65
74750;BMP280;63269;53.330;-6.288;2022-11-30T01:56:20;101686.91;;;19.67
74750;BMP280;63269;53.330;-6.288;2022-11-30T01:58:46;101689.59;;;19.67
74750;BMP280;63269;53.330;-6.288;2022-11-30T02:01:12;101687.31;;;19.69
74750;BMP280;63269;53.330;-6.288;2022-11-30T02:03:46;101683.50;;;19.70
74750;BMP280;63269;53.330;-6.288;2022-11-30T02:06:14;101681.56;;;19.70
74750;BMP280;63269;53.330;-6.288;2022-11-30T02:08:39;101693.72;;;19.71
74750;BMP280;63269;53.330;-6.288;2022-11-30T02:11:10;101691.06;;;19.71
74750;BMP280;63269;53.330;-6.288;2022-11-30T02:16:37;101698.66;;;19.73
74750;BMP280;63269;53.330;-6.288;2022-11-30T02:19:52;101692.91;;;19.74
74750;BMP280;63269;53.330;-6.288;2022-11-30T02:30:14;101710.00;;;19.77
74750;BMP280;63269;53.330;-6.288;2022-11-30T02:33:02;101710.75;;;19.77
74750;BMP280;63269;53.330;-6.288;2022-11-30T02:35:32;101712.69;;;19.77
74750;BMP280;63269;53.330;-6.288;2022-11-30T02:38:00;101716.84;;;19.78
74750;BMP280;63269;53.330;-6.288;2022-11-30T02:40:25;101722.53;;;19.80
74750;BMP280;63269;53.330;-6.288;2022-11-30T02:42:52;101721.38;;;19.81
74750;BMP280;63269;53.330;-6.288;2022-11-30T02:48:31;101730.50;;;19.80
74750;BMP280;63269;53.330;-6.288;2022-11-30T02:51:03;101724.03;;;19.81
74750;BMP280;63269;53.330;-6.288;2022-11-30T02:53:31;101729.38;;;19.81
74750;BMP280;63269;53.330;-6.288;2022-11-30T02:55:56;101723.25;;;19.81
74750;BMP280;63269;53.330;-6.288;2022-11-30T02:58:21;101733.97;;;19.77
74750;BMP280;63269;53.330;-6.288;2022-11-30T03:00:47;101723.66;;;19.79
74750;BMP280;63269;53.330;-6.288;2022-11-30T03:03:12;101732.38;;;19.80
74750;BMP280;63269;53.330;-6.288;2022-11-30T03:05:38;101727.88;;;19.76
74750;BMP280;63269;53.330;-6.288;2022-11-30T03:08:04;101730.53;;;19.76
74750;BMP280;63269;53.330;-6.288;2022-11-30T03:10:29;101728.28;;;19.75
74750;BMP280;63269;53.330;-6.288;2022-11-30T03:12:58;101722.19;;;19.74
74750;BMP280;63269;53.330;-6.288;2022-11-30T03:15:24;101731.00;;;19.71
74750;BMP280;63269;53.330;-6.288;2022-11-30T03:17:49;101737.47;;;19.70
74750;BMP280;63269;53.330;-6.288;2022-11-30T03:20:15;101730.66;;;19.69
74750;BMP280;63269;53.330;-6.288;2022-11-30T03:22:40;101729.13;;;19.68
74750;BMP280;63269;53.330;-6.288;2022-11-30T03:25:06;101720.78;;;19.66
74750;BMP280;63269;53.330;-6.288;2022-11-30T03:27:31;101721.94;;;19.65
74750;BMP280;63269;53.330;-6.288;2022-11-30T03:29:57;101725.00;;;19.64
74750;BMP280;63269;53.330;-6.288;2022-11-30T03:32:22;101719.31;;;19.62
74750;BMP280;63269;53.330;-6.288;2022-11-30T03:34:48;101721.63;;;19.60
74750;BMP280;63269;53.330;-6.288;2022-11-30T03:37:13;101723.53;;;19.59
74750;BMP280;63269;53.330;-6.288;2022-11-30T03:39:38;101723.56;;;19.55
74750;BMP280;63269;53.330;-6.288;2022-11-30T03:42:04;101746.78;;;19.55
74750;BMP280;63269;53.330;-6.288;2022-11-30T03:44:29;101733.88;;;19.53
74750;BMP280;63269;53.330;-6.288;2022-11-30T03:46:55;101735.44;;;19.51
74750;BMP280;63269;53.330;-6.288;2022-11-30T03:49:20;101740.00;;;19.50
74750;BMP280;63269;53.330;-6.288;2022-11-30T03:51:48;101739.63;;;19.48
74750;BMP280;63269;53.330;-6.288;2022-11-30T03:54:13;101745.34;;;19.47
74750;BMP280;63269;53.330;-6.288;2022-11-30T03:56:38;101745.00;;;19.45
74750;BMP280;63269;53.330;-6.288;2022-11-30T03:59:04;101746.88;;;19.44
74750;BMP280;63269;53.330;-6.288;2022-11-30T04:01:29;101747.69;;;19.41
74750;BMP280;63269;53.330;-6.288;2022-11-30T04:03:55;101758.72;;;19.40
74750;BMP280;63269;53.330;-6.288;2022-11-30T04:06:20;101753.06;;;19.38
74750;BMP280;63269;53.330;-6.288;2022-11-30T04:08:46;101754.94;;;19.37
74750;BMP280;63269;53.330;-6.288;2022-11-30T04:11:12;101756.13;;;19.36
74750;BMP280;63269;53.330;-6.288;2022-11-30T04:13:38;101756.50;;;19.34
74750;BMP280;63269;53.330;-6.288;2022-11-30T04:16:05;101753.50;;;19.32
74750;BMP280;63269;53.330;-6.288;2022-11-30T04:18:32;101753.88;;;19.31
74750;BMP280;63269;53.330;-6.288;2022-11-30T04:20:58;101760.34;;;19.30
74750;BMP280;63269;53.330;-6.288;2022-11-30T04:23:27;101752.03;;;19.28
74750;BMP280;63269;53.330;-6.288;2022-11-30T04:25:53;101742.91;;;19.25
74750;BMP280;63269;53.330;-6.288;2022-11-30T04:28:19;101743.66;;;19.26
74750;BMP280;63269;53.330;-6.288;2022-11-30T04:30:44;101747.47;;;19.25
74750;BMP280;63269;53.330;-6.288;2022-11-30T04:33:11;101753.97;;;19.24
74750;BMP280;63269;53.330;-6.288;2022-11-30T04:35:47;101754.34;;;19.22
74750;BMP280;63269;53.330;-6.288;2022-11-30T04:38:15;101755.91;;;19.20
74750;BMP280;63269;53.330;-6.288;2022-11-30T04:40:42;101758.56;;;19.20
74750;BMP280;63269;53.330;-6.288;2022-11-30T04:43:08;101763.13;;;19.19
74750;BMP280;63269;53.330;-6.288;2022-11-30T04:45:34;101756.63;;;19.20
74750;BMP280;63269;53.330;-6.288;2022-11-30T04:48:00;101751.31;;;19.24
74750;BMP280;63269;53.330;-6.288;2022-11-30T04:50:25;101759.63;;;19.26
74750;BMP280;63269;53.330;-6.288;2022-11-30T04:52:50;101764.91;;;19.29
74750;BMP280;63269;53.330;-6.288;2022-11-30T04:55:16;101763.38;;;19.32
74750;BMP280;63269;53.330;-6.288;2022-11-30T04:57:47;101766.00;;;19.35
74750;BMP280;63269;53.330;-6.288;2022-11-30T05:00:14;101761.78;;;19.38
74750;BMP280;63269;53.330;-6.288;2022-11-30T05:02:40;101761.38;;;19.40
74750;BMP280;63269;53.330;-6.288;2022-11-30T05:05:06;101759.84;;;19.42
74750;BMP280;63269;53.330;-6.288;2022-11-30T05:07:32;101757.53;;;19.44
74750;BMP280;63269;53.330;-6.288;2022-11-30T05:09:57;101757.16;;;19.46
74750;BMP280;63269;53.330;-6.288;2022-11-30T05:12:23;101754.13;;;19.47
74750;BMP280;63269;53.330;-6.288;2022-11-30T05:14:48;101765.09;;;19.49
74750;BMP280;63269;53.330;-6.288;2022-11-30T05:17:13;101758.22;;;19.52
74750;BMP280;63269;53.330;-6.288;2022-11-30T05:19:39;101760.47;;;19.53
74750;BMP280;63269;53.330;-6.288;2022-11-30T05:22:04;101756.69;;;19.54
74750;BMP280;63269;53.330;-6.288;2022-11-30T05:24:30;101757.00;;;19.56
74750;BMP280;63269;53.330;-6.288;2022-11-30T05:26:55;101752.06;;;19.59
74750;BMP280;63269;53.330;-6.288;2022-11-30T05:29:21;101750.91;;;19.60
74750;BMP280;63269;53.330;-6.288;2022-11-30T05:31:46;101760.00;;;19.62
74750;BMP280;63269;53.330;-6.288;2022-11-30T05:34:12;101750.50;;;19.61
74750;BMP280;63269;53.330;-6.288;2022-11-30T05:36:37;101758.09;;;19.63
74750;BMP280;63269;53.330;-6.288;2022-11-30T05:39:03;101756.56;;;19.65
74750;BMP280;63269;53.330;-6.288;2022-11-30T05:41:28;101762.63;;;19.66
74750;BMP280;63269;53.330;-6.288;2022-11-30T05:43:54;101764.13;;;19.67
74750;BMP280;63269;53.330;-6.288;2022-11-30T05:46:20;101761.06;;;19.68
74750;BMP280;63269;53.330;-6.288;2022-11-30T05:48:45;101759.94;;;19.69
74750;BMP280;63269;53.330;-6.288;2022-11-30T05:51:13;101767.91;;;19.69
74750;BMP280;63269;53.330;-6.288;2022-11-30T05:53:42;101767.50;;;19.71
74750;BMP280;63269;53.330;-6.288;2022-11-30T05:56:11;101765.59;;;19.71
74750;BMP280;63269;53.330;-6.288;2022-11-30T05:58:37;101752.28;;;19.71
74750;BMP280;63269;53.330;-6.288;2022-11-30T06:01:03;101759.13;;;19.72
74750;BMP280;63269;53.330;-6.288;2022-11-30T06:03:30;101755.31;;;19.73
74750;BMP280;63269;53.330;-6.288;2022-11-30T06:05:56;101757.56;;;19.75
74750;BMP280;63269;53.330;-6.288;2022-11-30T06:08:22;101760.22;;;19.75
74750;BMP280;63269;53.330;-6.288;2022-11-30T06:10:47;101759.09;;;19.76
74750;BMP280;63269;53.330;-6.288;2022-11-30T06:13:13;101757.94;;;19.77
74750;BMP280;63269;53.330;-6.288;2022-11-30T06:15:39;101754.09;;;19.78
74750;BMP280;63269;53.330;-6.288;2022-11-30T06:18:05;101751.03;;;19.80
74750;BMP280;63269;53.330;-6.288;2022-11-30T06:20:32;101747.22;;;19.81
74750;BMP280;63269;53.330;-6.288;2022-11-30T06:22:57;101745.34;;;19.81
74750;BMP280;63269;53.330;-6.288;2022-11-30T06:25:24;101746.84;;;19.82
74750;BMP280;63269;53.330;-6.288;2022-11-30T06:27:50;101749.50;;;19.82
74750;BMP280;63269;53.330;-6.288;2022-11-30T06:30:15;101747.19;;;19.84
74750;BMP280;63269;53.330;-6.288;2022-11-30T06:32:45;101759.34;;;19.85
74750;BMP280;63269;53.330;-6.288;2022-11-30T06:35:11;101757.47;;;19.82
74750;BMP280;63269;53.330;-6.288;2022-11-30T06:37:36;101756.34;;;19.83
74750;BMP280;63269;53.330;-6.288;2022-11-30T06:40:02;101761.25;;;19.85
74750;BMP280;63269;53.330;-6.288;2022-11-30T06:42:30;101759.72;;;19.87
74750;BMP280;63269;53.330;-6.288;2022-11-30T06:44:56;101766.97;;;19.87
74750;BMP280;63269;53.330;-6.288;2022-11-30T06:47:23;101758.19;;;19.86
74750;BMP280;63269;53.330;-6.288;2022-11-30T06:49:48;101777.19;;;19.88
74750;BMP280;63269;53.330;-6.288;2022-11-30T06:52:13;101774.13;;;19.90
74750;BMP280;63269;53.330;-6.288;2022-11-30T06:54:39;101768.03;;;19.89
74750;BMP280;63269;53.330;-6.288;2022-11-30T06:57:04;101762.72;;;19.89
74750;BMP280;63269;53.330;-6.288;2022-11-30T06:59:30;101768.00;;;19.93
74750;BMP280;63269;53.330;-6.288;2022-11-30T07:01:55;101775.97;;;19.93
74750;BMP280;63269;53.330;-6.288;2022-11-30T07:04:20;101780.16;;;19.94
74750;BMP280;63269;53.330;-6.288;2022-11-30T07:06:46;101780.91;;;19.94
74750;BMP280;63269;53.330;-6.288;2022-11-30T07:09:11;101777.13;;;19.95
74750;BMP280;63269;53.330;-6.288;2022-11-30T07:11:38;101785.09;;;19.95
74750;BMP280;63269;53.330;-6.288;2022-11-30T07:14:03;101787.34;;;19.97
74750;BMP280;63269;53.330;-6.288;2022-11-30T07:16:28;101792.69;;;19.97
74750;BMP280;63269;53.330;-6.288;2022-11-30T07:18:54;101786.94;;;19.98
74750;BMP280;63269;53.330;-6.288;2022-11-30T07:21:19;101791.53;;;19.98
74750;BMP280;63269;53.330;-6.288;2022-11-30T07:23:45;101789.97;;;20.01
74750;BMP280;63269;53.330;-6.288;2022-11-30T07:26:29;101792.63;;;20.01
74750;BMP280;63269;53.330;-6.288;2022-11-30T07:28:54;101797.97;;;20.01
74750;BMP280;63269;53.330;-6.288;2022-11-30T07:31:30;101805.91;;;20.04
74750;BMP280;63269;53.330;-6.288;2022-11-30T07:33:57;101817.31;;;20.05
74750;BMP280;63269;53.330;-6.288;2022-11-30T07:36:24;101811.56;;;20.06
74750;BMP280;63269;53.330;-6.288;2022-11-30T07:38:50;101818.81;;;20.06
74750;BMP280;63269;53.330;-6.288;2022-11-30T07:41:16;101825.28;;;20.08
74750;BMP280;63269;53.330;-6.288;2022-11-30T07:43:42;101824.84;;;20.10
74750;BMP280;63269;53.330;-6.288;2022-11-30T07:46:10;101819.13;;;20.11
74750;BMP280;63269;53.330;-6.288;2022-11-30T07:48:36;101829.78;;;20.11
74750;BMP280;63269;53.330;-6.288;2022-11-30T07:51:04;101830.16;;;20.13
74750;BMP280;63269;53.330;-6.288;2022-11-30T07:53:29;101835.47;;;20.13
74750;BMP280;63269;53.330;-6.288;2022-11-30T07:56:18;101834.31;;;20.14
74750;BMP280;63269;53.330;-6.288;2022-11-30T07:58:44;101851.41;;;20.17
74750;BMP280;63269;53.330;-6.288;2022-11-30T08:01:15;101847.22;;;20.16
74750;BMP280;63269;53.330;-6.288;2022-11-30T08:03:42;101863.59;;;20.18
74750;BMP280;63269;53.330;-6.288;2022-11-30T08:06:18;101871.16;;;20.20
74750;BMP280;63269;53.330;-6.288;2022-11-30T08:08:46;101862.41;;;20.19
74750;BMP280;63269;53.330;-6.288;2022-11-30T08:11:14;101870.78;;;20.21
74750;BMP280;63269;53.330;-6.288;2022-11-30T08:13:39;101873.44;;;20.21
74750;BMP280;63269;53.330;-6.288;2022-11-30T08:16:10;101874.56;;;20.24
74750;BMP280;63269;53.330;-6.288;2022-11-30T08:18:35;101877.97;;;20.24
74750;BMP280;63269;53.330;-6.288;2022-11-30T08:21:04;101882.91;;;20.26
74750;BMP280;63269;53.330;-6.288;2022-11-30T08:23:31;101886.31;;;20.26
74750;BMP280;63269;53.330;-6.288;2022-11-30T08:26:16;101895.81;;;20.27
74750;BMP280;63269;53.330;-6.288;2022-11-30T08:28:43;101896.56;;;20.28
74750;BMP280;63269;53.330;-6.288;2022-11-30T08:31:16;101904.94;;;20.30
74750;BMP280;63269;53.330;-6.288;2022-11-30T08:33:43;101912.91;;;20.30
74750;BMP280;63269;53.330;-6.288;2022-11-30T08:36:11;101920.53;;;20.31
74750;BMP280;63269;53.330;-6.288;2022-11-30T08:38:37;101928.88;;;20.33
74750;BMP280;63269;53.330;-6.288;2022-11-30T08:41:04;101928.88;;;20.33
74750;BMP280;63269;53.330;-6.288;2022-11-30T08:43:30;101928.47;;;20.35
74750;BMP280;63269;53.330;-6.288;2022-11-30T08:45:56;101943.28;;;20.36
74750;BMP280;63269;53.330;-6.288;2022-11-30T08:48:22;101946.38;;;20.34
74750;BMP280;63269;53.330;-6.288;2022-11-30T08:50:47;101947.88;;;20.35
74750;BMP280;63269;53.330;-6.288;2022-11-30T08:53:13;101950.88;;;20.37
74750;BMP280;63269;53.330;-6.288;2022-11-30T08:55:38;101953.53;;;20.37
74750;BMP280;63269;53.330;-6.288;2022-11-30T08:58:04;101957.00;;;20.38
74750;BMP280;63269;53.330;-6.288;2022-11-30T09:00:29;101955.81;;;20.39
74750;BMP280;63269;53.330;-6.288;2022-11-30T09:02:55;101953.94;;;20.40
74750;BMP280;63269;53.330;-6.288;2022-11-30T09:05:20;101955.03;;;20.42
74750;BMP280;63269;53.330;-6.288;2022-11-30T09:07:46;101956.53;;;20.43
74750;BMP280;63269;53.330;-6.288;2022-11-30T09:10:11;101959.97;;;20.44
74750;BMP280;63269;53.330;-6.288;2022-11-30T09:12:38;101959.56;;;20.45
74750;BMP280;63269;53.330;-6.288;2022-11-30T09:15:05;101966.41;;;20.46
74750;BMP280;63269;53.330;-6.288;2022-11-30T09:17:30;101965.25;;;20.47
74750;BMP280;63269;53.330;-6.288;2022-11-30T09:19:56;101968.69;;;20.48
74750;BMP280;63269;53.330;-6.288;2022-11-30T09:22:21;101972.09;;;20.48
74750;BMP280;63269;53.330;-6.288;2022-11-30T09:24:47;101973.22;;;20.51
74750;BMP280;63269;53.330;-6.288;2022-11-30T09:27:12;101975.09;;;20.50
74750;BMP280;63269;53.330;-6.288;2022-11-30T09:29:38;101982.72;;;20.52
74750;BMP280;63269;53.330;-6.288;2022-11-30T09:32:03;101975.47;;;20.52
74750;BMP280;63269;53.330;-6.288;2022-11-30T09:34:29;101972.81;;;20.52
74750;BMP280;63269;53.330;-6.288;2022-11-30T09:36:55;101979.66;;;20.53
74750;BMP280;63269;53.330;-6.288;2022-11-30T09:39:20;101981.13;;;20.54
74750;BMP280;63269;53.330;-6.288;2022-11-30T09:44:56;101983.41;;;20.56
74750;BMP280;63269;53.330;-6.288;2022-11-30T09:49:52;101994.84;;;20.56
74750;BMP280;63269;53.330;-6.288;2022-11-30T09:52:25;101999.03;;;20.57
74750;BMP280;63269;53.330;-6.288;2022-11-30T09:54:52;102008.50;;;20.58
74750;BMP280;63269;53.330;-6.288;2022-11-30T09:57:44;102002.03;;;20.59
74750;BMP280;63269;53.330;-6.288;2022-11-30T10:00:19;102000.13;;;20.60
74750;BMP280;63269;53.330;-6.288;2022-11-30T10:02:51;101995.16;;;20.62
74750;BMP280;63269;53.330;-6.288;2022-11-30T10:05:18;102012.31;;;20.61
74750;BMP280;63269;53.330;-6.288;2022-11-30T10:27:26;102029.78;;;20.66
74750;BMP280;63269;53.330;-6.288;2022-11-30T10:29:57;102029.03;;;20.65
74750;BMP280;63269;53.330;-6.288;2022-11-30T10:32:30;102033.22;;;20.63
74750;BMP280;63269;53.330;-6.288;2022-11-30T10:35:12;102042.69;;;20.67
74750;BMP280;63269;53.330;-6.288;2022-11-30T10:37:40;102039.28;;;20.67
74750;BMP280;63269;53.330;-6.288;2022-11-30T10:40:13;102046.88;;;20.68
74750;BMP280;63269;53.330;-6.288;2022-11-30T10:42:45;102036.22;;;20.68
74750;BMP280;63269;53.330;-6.288;2022-11-30T10:45:18;102032.81;;;20.68
74750;BMP280;63269;53.330;-6.288;2022-11-30T10:47:49;102045.00;;;20.69
74750;BMP280;63269;53.330;-6.288;2022-11-30T10:50:17;102048.81;;;20.68
74750;BMP280;63269;53.330;-6.288;2022-11-30T10:52:47;102051.47;;;20.68
74750;BMP280;63269;53.330;-6.288;2022-11-30T10:55:20;102041.53;;;20.68
74750;BMP280;63269;53.330;-6.288;2022-11-30T10:57:48;102052.22;;;20.68
74750;BMP280;63269;53.330;-6.288;2022-11-30T11:00:15;102045.00;;;20.69
74750;BMP280;63269;53.330;-6.288;2022-11-30T11:02:48;102047.66;;;20.69
74750;BMP280;63269;53.330;-6.288;2022-11-30T11:05:24;102044.22;;;20.68
74750;BMP280;63269;53.330;-6.288;2022-11-30T11:08:00;102041.53;;;20.68
74750;BMP280;63269;53.330;-6.288;2022-11-30T11:10:42;102034.31;;;20.69
74750;BMP280;63269;53.330;-6.288;2022-11-30T11:16:02;102033.56;;;20.68
74750;BMP280;63269;53.330;-6.288;2022-11-30T11:18:33;102034.31;;;20.69
74750;BMP280;63269;53.330;-6.288;2022-11-30T11:21:02;102035.47;;;20.68
74750;BMP280;63269;53.330;-6.288;2022-11-30T11:23:41;102042.31;;;20.69
74750;BMP280;63269;53.330;-6.288;2022-11-30T11:26:16;102042.31;;;20.69
74750;BMP280;63269;53.330;-6.288;2022-11-30T11:28:45;102043.81;;;20.70
74750;BMP280;63269;53.330;-6.288;2022-11-30T11:31:16;102041.16;;;20.70
74750;BMP280;63269;53.330;-6.288;2022-11-30T11:33:51;102041.16;;;20.70
74750;BMP280;63269;53.330;-6.288;2022-11-30T11:36:24;102046.50;;;20.70
74750;BMP280;63269;53.330;-6.288;2022-11-30T11:38:50;102045.75;;;20.69
74750;BMP280;63269;53.330;-6.288;2022-11-30T11:44:03;102046.84;;;20.72
74750;BMP280;63269;53.330;-6.288;2022-11-30T11:46:31;102051.06;;;20.69
74750;BMP280;63269;53.330;-6.288;2022-11-30T11:49:01;102051.06;;;20.69
74750;BMP280;63269;53.330;-6.288;2022-11-30T11:51:35;102053.31;;;20.71
74750;BMP280;63269;53.330;-6.288;2022-11-30T11:54:26;102059.41;;;20.71
74750;BMP280;63269;53.330;-6.288;2022-11-30T11:56:50;102065.91;;;20.70
74750;BMP280;63269;53.330;-6.288;2022-11-30T12:04:35;102058.66;;;20.71
74750;BMP280;63269;53.330;-6.288;2022-11-30T12:07:03;102059.84;;;20.66
74750;BMP280;63269;53.330;-6.288;2022-11-30T12:09:39;102048.41;;;20.69
74750;BMP280;63269;53.330;-6.288;2022-11-30T12:12:11;102057.16;;;20.70
74750;BMP280;63269;53.330;-6.288;2022-11-30T12:14:37;102049.16;;;20.70
74750;BMP280;63269;53.330;-6.288;2022-11-30T12:25:42;102049.16;;;20.70
74750;BMP280;63269;53.330;-6.288;2022-11-30T12:28:33;102046.06;;;20.71
74750;BMP280;63269;53.330;-6.288;2022-11-30T12:31:17;102046.84;;;20.72
74750;BMP280;63269;53.330;-6.288;2022-11-30T12:36:24;102046.06;;;20.71
74750;BMP280;63269;53.330;-6.288;2022-11-30T12:38:58;102038.84;;;20.72
74750;BMP280;63269;53.330;-6.288;2022-11-30T12:42:01;102045.69;;;20.73
74750;BMP280;63269;53.330;-6.288;2022-11-30T12:53:00;102052.53;;;20.74
74750;BMP280;63269;53.330;-6.288;2022-11-30T12:55:39;102047.94;;;20.74
74750;BMP280;63269;53.330;-6.288;2022-11-30T13:01:14;102032.34;;;20.73
74750;BMP280;63269;53.330;-6.288;2022-11-30T13:06:17;102033.88;;;20.74
74750;BMP280;63269;53.330;-6.288;2022-11-30T13:09:05;102026.63;;;20.74
74750;BMP280;63269;53.330;-6.288;2022-11-30T13:11:40;102029.28;;;20.74
74750;BMP280;63269;53.330;-6.288;2022-11-30T13:14:14;102027.38;;;20.75
74750;BMP280;63269;53.330;-6.288;2022-11-30T13:16:41;102022.78;;;20.75
74750;BMP280;63269;53.330;-6.288;2022-11-30T13:22:02;102031.56;;;20.76
74750;BMP280;63269;53.330;-6.288;2022-11-30T13:24:38;102025.84;;;20.77
74750;BMP280;63269;53.330;-6.288;2022-11-30T13:32:21;102025.44;;;20.75
74750;BMP280;63269;53.330;-6.288;2022-11-30T13:34:47;102021.25;;;20.78
74750;BMP280;63269;53.330;-6.288;2022-11-30T13:37:21;102034.16;;;20.79
74750;BMP280;63269;53.330;-6.288;2022-11-30T13:39:54;102037.56;;;20.80
74750;BMP280;63269;53.330;-6.288;2022-11-30T13:47:39;102048.25;;;20.80
74750;BMP280;63269;53.330;-6.288;2022-11-30T13:50:08;102049.03;;;20.81
74750;BMP280;63269;53.330;-6.288;2022-11-30T13:58:09;102051.69;;;20.81
74750;BMP280;63269;53.330;-6.288;2022-11-30T14:03:36;102053.97;;;20.82
74750;BMP280;63269;53.330;-6.288;2022-11-30T14:09:12;102049.38;;;20.83
74750;BMP280;63269;53.330;-6.288;2022-11-30T14:11:44;102061.22;;;20.82
74750;BMP280;63269;53.330;-6.288;2022-11-30T14:14:38;102052.06;;;20.83
74750;BMP280;63269;53.330;-6.288;2022-11-30T14:17:11;102050.16;;;20.83
74750;BMP280;63269;53.330;-6.288;2022-11-30T14:19:37;102051.63;;;20.84
74750;BMP280;63269;53.330;-6.288;2022-11-30T14:22:03;102050.88;;;20.84
74750;BMP280;63269;53.330;-6.288;2022-11-30T14:24:34;102048.97;;;20.84
74750;BMP280;63269;53.330;-6.288;2022-11-30T14:27:02;102044.41;;;20.85
74750;BMP280;63269;53.330;-6.288;2022-11-30T14:29:32;102047.81;;;20.85
74750;BMP280;63269;53.330;-6.288;2022-11-30T14:32:06;102045.16;;;20.85
74750;BMP280;63269;53.330;-6.288;2022-11-30T14:34:40;102061.53;;;20.87
74750;BMP280;63269;53.330;-6.288;2022-11-30T14:37:19;102059.59;;;20.88
74750;BMP280;63269;53.330;-6.288;2022-11-30T14:39:47;102060.00;;;20.86
74750;BMP280;63269;53.330;-6.288;2022-11-30T14:42:21;102061.53;;;20.87
74750;BMP280;63269;53.330;-6.288;2022-11-30T14:44:47;102054.25;;;20.88
74750;BMP280;63269;53.330;-6.288;2022-11-30T14:47:27;102064.94;;;20.88
74750;BMP280;63269;53.330;-6.288;2022-11-30T14:49:54;102055.00;;;20.88
74750;BMP280;63269;53.330;-6.288;2022-11-30T14:58:11;102069.53;;;20.87
74750;BMP280;63269;53.330;-6.288;2022-11-30T15:00:40;102055.44;;;20.87
74750;BMP280;63269;53.330;-6.288;2022-11-30T15:03:18;102063.00;;;20.88
74750;BMP280;63269;53.330;-6.288;2022-11-30T15:05:44;102058.09;;;20.87
74750;BMP280;63269;53.330;-6.288;2022-11-30T15:08:12;102060.34;;;20.88
74750;BMP280;63269;53.330;-6.288;2022-11-30T15:10:39;102055.78;;;20.89
74750;BMP280;63269;53.330;-6.288;2022-11-30T15:13:05;102049.34;;;20.86
74750;BMP280;63269;53.330;-6.288;2022-11-30T15:15:31;102052.34;;;20.88
74750;BMP280;63269;53.330;-6.288;2022-11-30T15:18:09;102062.63;;;20.90
74750;BMP280;63269;53.330;-6.288;2022-11-30T15:20:56;102066.06;;;20.90
74750;BMP280;63269;53.330;-6.288;2022-11-30T15:23:24;102069.13;;;20.89
74750;BMP280;63269;53.330;-6.288;2022-11-30T15:25:53;102064.16;;;20.91
74750;BMP280;63269;53.330;-6.288;2022-11-30T15:28:23;102072.53;;;20.89
74750;BMP280;63269;53.330;-6.288;2022-11-30T15:30:55;102075.56;;;20.91
74750;BMP280;63269;53.330;-6.288;2022-11-30T15:33:30;102077.47;;;20.91
74750;BMP280;63269;53.330;-6.288;2022-11-30T15:35:57;102079.41;;;20.90
74750;BMP280;63269;53.330;-6.288;2022-11-30T15:38:24;102084.31;;;20.92